sensor_id;sensor_type;location;lat;lon;timestamp;temperature;humidity
34873;DHT22;21084;51.098;14.506;2024-02-04T00:01:50;8.30;99.90
34873;DHT22;21084;51.098;14.506;2024-02-04T00:04:18;8.30;99.90
34873;DHT22;21084;51.098;14.506;2024-02-04T00:06:46;8.30;99.90
34873;DHT22;21084;51.098;14.506;2024-02-04T00:09:15;8.30;99.90
34873;DHT22;21084;51.098;14.506;2024-02-04T00:11:43;8.30;99.90
34873;DHT22;21084;51.098;14.506;2024-02-04T00:14:11;8.30;99.90
34873;DHT22;21084;51.098;14.506;2024-02-04T00:16:41;8.30;99.90
34873;DHT22;21084;51.098;14.506;2024-02-04T00:19:09;8.30;99.90
34873;DHT22;21084;51.098;14.506;2024-02-04T00:21:38;8.30;99.90
34873;DHT22;21084;51.098;14.506;2024-02-04T00:24:06;8.20;99.90
34873;DHT22;21084;51.098;14.506;2024-02-04T00:26:35;8.20;99.90
34873;DHT22;21084;51.098;14.506;2024-02-04T00:29:03;8.20;99.90
34873;DHT22;21084;51.098;14.506;2024-02-04T00:31:31;8.20;99.90
34873;DHT22;21084;51.098;14.506;2024-02-04T00:34:01;8.20;99.90
34873;DHT22;21084;51.098;14.506;2024-02-04T00:36:30;8.20;99.90
34873;DHT22;21084;51.098;14.506;2024-02-04T00:38:58;8.20;99.90
34873;DHT22;21084;51.098;14.506;2024-02-04T00:41:27;8.20;99.90
34873;DHT22;21084;51.098;14.506;2024-02-04T00:43:55;8.20;99.90
34873;DHT22;21084;51.098;14.506;2024-02-04T00:46:23;8.20;99.90
34873;DHT22;21084;51.098;14.506;2024-02-04T00:48:51;8.20;99.90
34873;DHT22;21084;51.098;14.506;2024-02-04T00:51:21;8.20;99.90
34873;DHT22;21084;51.098;14.506;2024-02-04T00:53:49;8.20;99.90
34873;DHT22;21084;51.098;14.506;2024-02-04T00:56:17;8.20;99.90
34873;DHT22;21084;51.098;14.506;2024-02-04T00:58:46;8.20;99.90
34873;DHT22;21084;51.098;14.506;2024-02-04T01:01:14;8.20;99.90
34873;DHT22;21084;51.098;14.506;2024-02-04T01:03:42;8.20;99.90
34873;DHT22;21084;51.098;14.506;2024-02-04T01:06:11;8.20;99.90
34873;DHT22;21084;51.098;14.506;2024-02-04T01:08:40;8.20;99.90
34873;DHT22;21084;51.098;14.506;2024-02-04T01:11:08;8.20;99.90
34873;DHT22;21084;51.098;14.506;2024-02-04T01:13:37;8.20;99.90
34873;DHT22;21084;51.098;14.506;2024-02-04T01:16:05;8.20;99.90
34873;DHT22;21084;51.098;14.506;2024-02-04T01:18:33;8.30;99.90
34873;DHT22;21084;51.098;14.506;2024-02-04T01:21:01;8.30;99.90
34873;DHT22;21084;51.098;14.506;2024-02-04T01:23:29;8.40;99.90
34873;DHT22;21084;51.098;14.506;2024-02-04T01:25:59;8.40;99.90
34873;DHT22;21084;51.098;14.506;2024-02-04T01:28:27;8.40;99.90
34873;DHT22;21084;51.098;14.506;2024-02-04T01:30:55;8.40;99.90
34873;DHT22;21084;51.098;14.506;2024-02-04T01:33:24;8.40;99.90
34873;DHT22;21084;51.098;14.506;2024-02-04T01:35:52;8.40;99.90
34873;DHT22;21084;51.098;14.506;2024-02-04T01:38:20;8.40;99.90
34873;DHT22;21084;51.098;14.506;2024-02-04T01:40:48;8.40;99.90
34873;DHT22;21084;51.098;14.506;2024-02-04T01:43:20;8.30;99.90
34873;DHT22;21084;51.098;14.506;2024-02-04T01:45:49;8.30;99.90
34873;DHT22;21084;51.098;14.506;2024-02-04T01:48:18;8.30;99.90
34873;DHT22;21084;51.098;14.506;2024-02-04T01:50:47;8.20;99.90
34873;DHT22;21084;51.098;14.506;2024-02-04T01:53:17;8.20;99.90
34873;DHT22;21084;51.098;14.506;2024-02-04T01:55:46;8.10;99.90
34873;DHT22;21084;51.098;14.506;2024-02-04T01:58:14;8.10;99.90
34873;DHT22;21084;51.098;14.506;2024-02-04T02:00:44;8.10;99.90
34873;DHT22;21084;51.098;14.506;2024-02-04T02:03:13;8.10;99.90
34873;DHT22;21084;51.098;14.506;2024-02-04T02:05:42;8.00;99.90
34873;DHT22;21084;51.098;14.506;2024-02-04T02:08:10;8.00;99.90
34873;DHT22;21084;51.098;14.506;2024-02-04T02:10:39;8.00;99.90
34873;DHT22;21084;51.098;14.506;2024-02-04T02:13:11;8.10;99.90
34873;DHT22;21084;51.098;14.506;2024-02-04T02:15:44;8.00;99.90
34873;DHT22;21084;51.098;14.506;2024-02-04T02:18:14;8.10;99.90
34873;DHT22;21084;51.098;14.506;2024-02-04T02:20:47;8.10;99.90
34873;DHT22;21084;51.098;14.506;2024-02-04T02:23:21;8.10;99.90
34873;DHT22;21084;51.098;14.506;2024-02-04T02:25:51;8.10;99.90
34873;DHT22;21084;51.098;14.506;2024-02-04T02:28:19;8.10;99.90
34873;DHT22;21084;51.098;14.506;2024-02-04T02:30:47;8.10;99.90
34873;DHT22;21084;51.098;14.506;2024-02-04T02:33:16;8.10;99.90
34873;DHT22;21084;51.098;14.506;2024-02-04T02:35:44;8.00;99.90
34873;DHT22;21084;51.098;14.506;2024-02-04T02:38:15;8.00;99.90
34873;DHT22;21084;51.098;14.506;2024-02-04T02:40:47;8.00;99.90
34873;DHT22;21084;51.098;14.506;2024-02-04T02:43:19;8.00;99.90
34873;DHT22;21084;51.098;14.506;2024-02-04T02:45:47;8.00;99.90
34873;DHT22;21084;51.098;14.506;2024-02-04T02:48:15;8.00;99.90
34873;DHT22;21084;51.098;14.506;2024-02-04T02:50:44;8.00;99.90
34873;DHT22;21084;51.098;14.506;2024-02-04T02:53:12;8.00;99.90
34873;DHT22;21084;51.098;14.506;2024-02-04T02:55:40;8.00;99.90
34873;DHT22;21084;51.098;14.506;2024-02-04T02:58:09;7.90;99.90
34873;DHT22;21084;51.098;14.506;2024-02-04T03:00:39;7.90;99.90
34873;DHT22;21084;51.098;14.506;2024-02-04T03:03:07;7.90;99.90
34873;DHT22;21084;51.098;14.506;2024-02-04T03:05:35;7.80;99.90
34873;DHT22;21084;51.098;14.506;2024-02-04T03:08:05;7.80;99.90
34873;DHT22;21084;51.098;14.506;2024-02-04T03:10:33;7.80;99.90
34873;DHT22;21084;51.098;14.506;2024-02-04T03:13:02;7.80;99.90
34873;DHT22;21084;51.098;14.506;2024-02-04T03:15:30;7.80;99.90
34873;DHT22;21084;51.098;14.506;2024-02-04T03:18:00;7.70;99.90
34873;DHT22;21084;51.098;14.506;2024-02-04T03:20:28;7.70;99.90
34873;DHT22;21084;51.098;14.506;2024-02-04T03:22:56;7.70;99.90
34873;DHT22;21084;51.098;14.506;2024-02-04T03:25:25;7.60;99.90
34873;DHT22;21084;51.098;14.506;2024-02-04T03:27:55;7.60;99.90
34873;DHT22;21084;51.098;14.506;2024-02-04T03:30:23;7.50;99.90
34873;DHT22;21084;51.098;14.506;2024-02-04T03:32:52;7.50;99.90
34873;DHT22;21084;51.098;14.506;2024-02-04T03:35:21;7.40;99.90
34873;DHT22;21084;51.098;14.506;2024-02-04T03:37:50;7.40;99.90
34873;DHT22;21084;51.098;14.506;2024-02-04T03:40:18;7.30;99.90
34873;DHT22;21084;51.098;14.506;2024-02-04T03:42:49;7.20;99.90
34873;DHT22;21084;51.098;14.506;2024-02-04T03:45:17;7.30;99.90
34873;DHT22;21084;51.098;14.506;2024-02-04T03:47:45;7.30;99.90
34873;DHT22;21084;51.098;14.506;2024-02-04T03:50:13;7.30;99.90
34873;DHT22;21084;51.098;14.506;2024-02-04T03:52:43;7.30;99.90
34873;DHT22;21084;51.098;14.506;2024-02-04T03:55:11;7.30;99.90
34873;DHT22;21084;51.098;14.506;2024-02-04T03:57:39;7.30;99.90
34873;DHT22;21084;51.098;14.506;2024-02-04T04:00:09;7.30;99.90
34873;DHT22;21084;51.098;14.506;2024-02-04T04:02:37;7.20;99.90
34873;DHT22;21084;51.098;14.506;2024-02-04T04:05:06;7.20;99.90
34873;DHT22;21084;51.098;14.506;2024-02-04T04:07:38;7.10;99.90
34873;DHT22;21084;51.098;14.506;2024-02-04T04:10:08;7.00;99.90
34873;DHT22;21084;51.098;14.506;2024-02-04T04:12:36;7.00;99.90
34873;DHT22;21084;51.098;14.506;2024-02-04T04:15:05;7.00;99.90
34873;DHT22;21084;51.098;14.506;2024-02-04T04:17:33;7.00;99.90
34873;DHT22;21084;51.098;14.506;2024-02-04T04:20:03;7.00;99.90
34873;DHT22;21084;51.098;14.506;2024-02-04T04:22:32;6.90;99.90
34873;DHT22;21084;51.098;14.506;2024-02-04T04:25:00;6.90;99.90
34873;DHT22;21084;51.098;14.506;2024-02-04T04:27:30;7.00;99.90
34873;DHT22;21084;51.098;14.506;2024-02-04T04:29:58;7.00;99.90
34873;DHT22;21084;51.098;14.506;2024-02-04T04:32:27;7.10;99.90
34873;DHT22;21084;51.098;14.506;2024-02-04T04:34:55;7.10;99.90
34873;DHT22;21084;51.098;14.506;2024-02-04T04:37:23;7.10;99.90
34873;DHT22;21084;51.098;14.506;2024-02-04T04:39:51;7.10;99.90
34873;DHT22;21084;51.098;14.506;2024-02-04T04:42:20;7.10;99.90
34873;DHT22;21084;51.098;14.506;2024-02-04T04:44:49;7.10;99.90
34873;DHT22;21084;51.098;14.506;2024-02-04T04:47:17;7.10;99.90
34873;DHT22;21084;51.098;14.506;2024-02-04T04:49:45;7.10;99.90
34873;DHT22;21084;51.098;14.506;2024-02-04T04:52:14;7.10;99.90
34873;DHT22;21084;51.098;14.506;2024-02-04T04:54:42;7.10;99.90
34873;DHT22;21084;51.098;14.506;2024-02-04T04:57:10;7.10;99.90
34873;DHT22;21084;51.098;14.506;2024-02-04T04:59:39;7.10;99.90
34873;DHT22;21084;51.098;14.506;2024-02-04T05:02:08;7.20;99.90
34873;DHT22;21084;51.098;14.506;2024-02-04T05:04:37;7.20;99.90
34873;DHT22;21084;51.098;14.506;2024-02-04T05:07:06;7.20;99.90
34873;DHT22;21084;51.098;14.506;2024-02-04T05:09:34;7.20;99.90
34873;DHT22;21084;51.098;14.506;2024-02-04T05:12:03;7.20;99.90
34873;DHT22;21084;51.098;14.506;2024-02-04T05:14:31;7.30;99.90
34873;DHT22;21084;51.098;14.506;2024-02-04T05:16:59;7.30;99.90
34873;DHT22;21084;51.098;14.506;2024-02-04T05:19:29;7.40;99.90
34873;DHT22;21084;51.098;14.506;2024-02-04T05:21:57;7.40;99.90
34873;DHT22;21084;51.098;14.506;2024-02-04T05:24:25;7.40;99.90
34873;DHT22;21084;51.098;14.506;2024-02-04T05:26:54;7.30;99.90
34873;DHT22;21084;51.098;14.506;2024-02-04T05:29:22;7.30;99.90
34873;DHT22;21084;51.098;14.506;2024-02-04T05:31:50;7.30;99.90
34873;DHT22;21084;51.098;14.506;2024-02-04T05:34:18;7.30;99.90
34873;DHT22;21084;51.098;14.506;2024-02-04T05:36:48;7.30;99.90
34873;DHT22;21084;51.098;14.506;2024-02-04T05:39:16;7.20;99.90
34873;DHT22;21084;51.098;14.506;2024-02-04T05:41:45;7.20;99.90
34873;DHT22;21084;51.098;14.506;2024-02-04T05:44:13;7.20;99.90
34873;DHT22;21084;51.098;14.506;2024-02-04T05:46:41;7.20;99.90
34873;DHT22;21084;51.098;14.506;2024-02-04T05:49:10;7.20;99.90
34873;DHT22;21084;51.098;14.506;2024-02-04T05:51:38;7.20;99.90
34873;DHT22;21084;51.098;14.506;2024-02-04T05:54:08;7.20;99.90
34873;DHT22;21084;51.098;14.506;2024-02-04T05:56:37;7.10;99.90
34873;DHT22;21084;51.098;14.506;2024-02-04T05:59:05;7.20;99.90
34873;DHT22;21084;51.098;14.506;2024-02-04T06:01:34;7.20;99.90
34873;DHT22;21084;51.098;14.506;2024-02-04T06:04:02;7.10;99.90
34873;DHT22;21084;51.098;14.506;2024-02-04T06:06:31;7.20;99.90
34873;DHT22;21084;51.098;14.506;2024-02-04T06:09:00;7.20;99.90
34873;DHT22;21084;51.098;14.506;2024-02-04T06:11:29;7.20;99.90
34873;DHT22;21084;51.098;14.506;2024-02-04T06:13:58;7.20;99.90
34873;DHT22;21084;51.098;14.506;2024-02-04T06:16:26;7.20;99.90
34873;DHT22;21084;51.098;14.506;2024-02-04T06:18:54;7.30;99.90
34873;DHT22;21084;51.098;14.506;2024-02-04T06:21:25;7.30;99.90
34873;DHT22;21084;51.098;14.506;2024-02-04T06:23:53;7.30;99.90
34873;DHT22;21084;51.098;14.506;2024-02-04T06:26:21;7.30;99.90
34873;DHT22;21084;51.098;14.506;2024-02-04T06:28:51;7.30;99.90
34873;DHT22;21084;51.098;14.506;2024-02-04T06:31:19;7.30;99.90
34873;DHT22;21084;51.098;14.506;2024-02-04T06:33:48;7.30;99.90
34873;DHT22;21084;51.098;14.506;2024-02-04T06:36:16;7.40;99.90
34873;DHT22;21084;51.098;14.506;2024-02-04T06:38:45;7.30;99.90
34873;DHT22;21084;51.098;14.506;2024-02-04T06:41:13;7.40;99.90
34873;DHT22;21084;51.098;14.506;2024-02-04T06:43:41;7.40;99.90
34873;DHT22;21084;51.098;14.506;2024-02-04T06:46:11;7.40;99.90
34873;DHT22;21084;51.098;14.506;2024-02-04T06:48:39;7.40;99.90
34873;DHT22;21084;51.098;14.506;2024-02-04T06:51:07;7.40;99.90
34873;DHT22;21084;51.098;14.506;2024-02-04T06:53:35;7.50;99.90
34873;DHT22;21084;51.098;14.506;2024-02-04T06:56:04;7.50;99.90
34873;DHT22;21084;51.098;14.506;2024-02-04T06:58:32;7.50;99.90
34873;DHT22;21084;51.098;14.506;2024-02-04T07:01:01;7.50;99.90
34873;DHT22;21084;51.098;14.506;2024-02-04T07:03:31;7.50;99.90
34873;DHT22;21084;51.098;14.506;2024-02-04T07:06:00;7.50;99.90
34873;DHT22;21084;51.098;14.506;2024-02-04T07:08:28;7.50;99.90
34873;DHT22;21084;51.098;14.506;2024-02-04T07:10:56;7.50;99.90
34873;DHT22;21084;51.098;14.506;2024-02-04T07:13:26;7.50;99.90
34873;DHT22;21084;51.098;14.506;2024-02-04T07:15:54;7.50;99.90
34873;DHT22;21084;51.098;14.506;2024-02-04T07:18:23;7.50;99.90
34873;DHT22;21084;51.098;14.506;2024-02-04T07:20:52;7.50;99.90
34873;DHT22;21084;51.098;14.506;2024-02-04T07:23:21;7.50;99.90
34873;DHT22;21084;51.098;14.506;2024-02-04T07:25:49;7.50;99.90
34873;DHT22;21084;51.098;14.506;2024-02-04T07:28:17;7.50;99.90
34873;DHT22;21084;51.098;14.506;2024-02-04T07:30:45;7.50;99.90
34873;DHT22;21084;51.098;14.506;2024-02-04T07:33:14;7.50;99.90
34873;DHT22;21084;51.098;14.506;2024-02-04T07:35:42;7.40;99.90
34873;DHT22;21084;51.098;14.506;2024-02-04T07:38:12;7.50;99.90
34873;DHT22;21084;51.098;14.506;2024-02-04T07:40:40;7.50;99.90
34873;DHT22;21084;51.098;14.506;2024-02-04T07:43:08;7.50;99.90
34873;DHT22;21084;51.098;14.506;2024-02-04T07:45:37;7.50;99.90
34873;DHT22;21084;51.098;14.506;2024-02-04T07:48:06;7.50;99.90
34873;DHT22;21084;51.098;14.506;2024-02-04T07:50:36;7.50;99.90
34873;DHT22;21084;51.098;14.506;2024-02-04T07:53:04;7.50;99.90
34873;DHT22;21084;51.098;14.506;2024-02-04T07:55:34;7.60;99.90
34873;DHT22;21084;51.098;14.506;2024-02-04T07:58:02;7.70;99.90
34873;DHT22;21084;51.098;14.506;2024-02-04T08:00:31;7.70;99.90
34873;DHT22;21084;51.098;14.506;2024-02-04T08:02:59;7.80;99.90
34873;DHT22;21084;51.098;14.506;2024-02-04T08:05:27;7.80;99.90
34873;DHT22;21084;51.098;14.506;2024-02-04T08:07:55;7.90;99.90
34873;DHT22;21084;51.098;14.506;2024-02-04T08:10:24;7.90;99.90
34873;DHT22;21084;51.098;14.506;2024-02-04T08:12:54;8.00;99.90
34873;DHT22;21084;51.098;14.506;2024-02-04T08:15:22;8.00;99.90
34873;DHT22;21084;51.098;14.506;2024-02-04T08:17:51;8.10;99.90
34873;DHT22;21084;51.098;14.506;2024-02-04T08:20:19;8.20;99.90
34873;DHT22;21084;51.098;14.506;2024-02-04T08:22:48;8.20;99.90
34873;DHT22;21084;51.098;14.506;2024-02-04T08:25:16;8.20;99.90
34873;DHT22;21084;51.098;14.506;2024-02-04T08:27:45;8.20;99.90
34873;DHT22;21084;51.098;14.506;2024-02-04T08:30:15;8.20;99.90
34873;DHT22;21084;51.098;14.506;2024-02-04T08:32:44;8.20;99.90
34873;DHT22;21084;51.098;14.506;2024-02-04T08:35:12;8.30;99.90
34873;DHT22;21084;51.098;14.506;2024-02-04T08:37:41;8.30;99.90
34873;DHT22;21084;51.098;14.506;2024-02-04T08:40:09;8.40;99.90
34873;DHT22;21084;51.098;14.506;2024-02-04T08:42:38;8.50;99.90
34873;DHT22;21084;51.098;14.506;2024-02-04T08:45:07;8.50;99.90
34873;DHT22;21084;51.098;14.506;2024-02-04T08:47:37;8.50;99.90
34873;DHT22;21084;51.098;14.506;2024-02-04T08:50:06;8.50;99.90
34873;DHT22;21084;51.098;14.506;2024-02-04T08:52:34;8.50;99.90
34873;DHT22;21084;51.098;14.506;2024-02-04T08:55:03;8.50;99.90
34873;DHT22;21084;51.098;14.506;2024-02-04T08:57:32;8.50;99.90
34873;DHT22;21084;51.098;14.506;2024-02-04T09:00:00;8.60;99.90
34873;DHT22;21084;51.098;14.506;2024-02-04T09:02:28;8.50;99.90
34873;DHT22;21084;51.098;14.506;2024-02-04T09:04:58;8.50;99.90
34873;DHT22;21084;51.098;14.506;2024-02-04T09:07:26;8.40;99.90
34873;DHT22;21084;51.098;14.506;2024-02-04T09:09:58;8.40;99.90
34873;DHT22;21084;51.098;14.506;2024-02-04T09:12:26;8.40;99.90
34873;DHT22;21084;51.098;14.506;2024-02-04T09:14:55;8.40;99.90
34873;DHT22;21084;51.098;14.506;2024-02-04T09:17:23;8.30;99.90
34873;DHT22;21084;51.098;14.506;2024-02-04T09:19:51;8.40;99.90
34873;DHT22;21084;51.098;14.506;2024-02-04T09:22:21;8.30;99.90
34873;DHT22;21084;51.098;14.506;2024-02-04T09:24:50;8.20;99.90
34873;DHT22;21084;51.098;14.506;2024-02-04T09:27:18;7.90;99.90
34873;DHT22;21084;51.098;14.506;2024-02-04T09:29:46;7.90;99.90
34873;DHT22;21084;51.098;14.506;2024-02-04T09:32:15;7.80;99.90
34873;DHT22;21084;51.098;14.506;2024-02-04T09:34:45;7.80;99.90
34873;DHT22;21084;51.098;14.506;2024-02-04T09:37:14;7.70;99.90
34873;DHT22;21084;51.098;14.506;2024-02-04T09:39:44;7.70;99.90
34873;DHT22;21084;51.098;14.506;2024-02-04T09:42:19;7.70;99.90
34873;DHT22;21084;51.098;14.506;2024-02-04T09:44:48;7.60;99.90
34873;DHT22;21084;51.098;14.506;2024-02-04T09:47:17;7.60;99.90
34873;DHT22;21084;51.098;14.506;2024-02-04T09:49:45;7.60;99.90
34873;DHT22;21084;51.098;14.506;2024-02-04T09:52:15;7.60;99.90
34873;DHT22;21084;51.098;14.506;2024-02-04T09:54:48;7.60;99.90
34873;DHT22;21084;51.098;14.506;2024-02-04T09:57:17;7.60;99.90
34873;DHT22;21084;51.098;14.506;2024-02-04T09:59:46;7.70;99.90
34873;DHT22;21084;51.098;14.506;2024-02-04T10:02:14;7.60;99.90
34873;DHT22;21084;51.098;14.506;2024-02-04T10:04:48;7.60;99.90
34873;DHT22;21084;51.098;14.506;2024-02-04T10:07:16;7.60;99.90
34873;DHT22;21084;51.098;14.506;2024-02-04T10:09:47;7.60;99.90
34873;DHT22;21084;51.098;14.506;2024-02-04T10:12:15;7.70;99.90
34873;DHT22;21084;51.098;14.506;2024-02-04T10:14:44;7.60;99.90
34873;DHT22;21084;51.098;14.506;2024-02-04T10:17:13;7.60;99.90
34873;DHT22;21084;51.098;14.506;2024-02-04T10:19:42;7.60;99.90
34873;DHT22;21084;51.098;14.506;2024-02-04T10:22:10;7.60;99.90
34873;DHT22;21084;51.098;14.506;2024-02-04T10:24:38;7.60;99.90
34873;DHT22;21084;51.098;14.506;2024-02-04T10:27:09;7.70;99.90
34873;DHT22;21084;51.098;14.506;2024-02-04T10:29:52;7.80;99.90
34873;DHT22;21084;51.098;14.506;2024-02-04T10:32:21;8.00;99.90
34873;DHT22;21084;51.098;14.506;2024-02-04T10:34:50;8.20;99.90
34873;DHT22;21084;51.098;14.506;2024-02-04T10:37:19;8.20;99.90
34873;DHT22;21084;51.098;14.506;2024-02-04T10:39:47;8.30;99.90
34873;DHT22;21084;51.098;14.506;2024-02-04T10:42:17;8.40;99.90
34873;DHT22;21084;51.098;14.506;2024-02-04T10:44:50;8.50;99.90
34873;DHT22;21084;51.098;14.506;2024-02-04T10:47:21;8.50;99.90
34873;DHT22;21084;51.098;14.506;2024-02-04T10:49:51;8.50;99.90
34873;DHT22;21084;51.098;14.506;2024-02-04T10:52:20;8.50;99.90
34873;DHT22;21084;51.098;14.506;2024-02-04T10:54:50;8.60;99.90
34873;DHT22;21084;51.098;14.506;2024-02-04T10:57:21;8.60;99.90
34873;DHT22;21084;51.098;14.506;2024-02-04T10:59:50;8.60;99.90
34873;DHT22;21084;51.098;14.506;2024-02-04T11:02:19;8.60;99.90
34873;DHT22;21084;51.098;14.506;2024-02-04T11:04:48;8.60;99.90
34873;DHT22;21084;51.098;14.506;2024-02-04T11:07:17;8.60;99.90
34873;DHT22;21084;51.098;14.506;2024-02-04T11:09:45;8.60;99.90
34873;DHT22;21084;51.098;14.506;2024-02-04T11:12:16;8.60;99.90
34873;DHT22;21084;51.098;14.506;2024-02-04T11:14:48;8.60;99.90
34873;DHT22;21084;51.098;14.506;2024-02-04T11:17:21;8.50;99.90
34873;DHT22;21084;51.098;14.506;2024-02-04T11:19:56;8.50;99.90
34873;DHT22;21084;51.098;14.506;2024-02-04T11:22:34;8.40;99.90
34873;DHT22;21084;51.098;14.506;2024-02-04T11:25:13;8.30;99.90
34873;DHT22;21084;51.098;14.506;2024-02-04T11:27:45;8.30;99.90
34873;DHT22;21084;51.098;14.506;2024-02-04T11:30:16;8.30;99.90
34873;DHT22;21084;51.098;14.506;2024-02-04T11:32:45;8.20;99.90
34873;DHT22;21084;51.098;14.506;2024-02-04T11:35:14;8.20;99.90
34873;DHT22;21084;51.098;14.506;2024-02-04T11:37:42;8.20;99.90
34873;DHT22;21084;51.098;14.506;2024-02-04T11:40:14;8.20;99.90
34873;DHT22;21084;51.098;14.506;2024-02-04T11:42:43;8.20;99.90
34873;DHT22;21084;51.098;14.506;2024-02-04T11:45:12;8.20;99.90
34873;DHT22;21084;51.098;14.506;2024-02-04T11:47:43;8.20;99.90
34873;DHT22;21084;51.098;14.506;2024-02-04T11:50:11;8.10;99.90
34873;DHT22;21084;51.098;14.506;2024-02-04T11:52:40;8.10;99.90
34873;DHT22;21084;51.098;14.506;2024-02-04T11:55:12;8.10;99.90
34873;DHT22;21084;51.098;14.506;2024-02-04T11:57:41;8.10;99.90
34873;DHT22;21084;51.098;14.506;2024-02-04T12:00:10;8.00;99.90
34873;DHT22;21084;51.098;14.506;2024-02-04T12:02:39;8.00;99.90
34873;DHT22;21084;51.098;14.506;2024-02-04T12:05:08;8.00;99.90
34873;DHT22;21084;51.098;14.506;2024-02-04T12:07:37;8.00;99.90
34873;DHT22;21084;51.098;14.506;2024-02-04T12:10:10;8.00;99.90
34873;DHT22;21084;51.098;14.506;2024-02-04T12:12:39;8.00;99.90
34873;DHT22;21084;51.098;14.506;2024-02-04T12:15:08;8.10;99.90
34873;DHT22;21084;51.098;14.506;2024-02-04T12:17:37;8.20;99.90
34873;DHT22;21084;51.098;14.506;2024-02-04T12:20:06;8.30;99.90
34873;DHT22;21084;51.098;14.506;2024-02-04T12:22:36;8.40;99.90
34873;DHT22;21084;51.098;14.506;2024-02-04T12:25:05;8.40;99.90
34873;DHT22;21084;51.098;14.506;2024-02-04T12:27:33;8.50;99.90
34873;DHT22;21084;51.098;14.506;2024-02-04T12:30:02;8.60;99.90
34873;DHT22;21084;51.098;14.506;2024-02-04T12:32:32;8.80;99.90
34873;DHT22;21084;51.098;14.506;2024-02-04T12:35:00;8.90;99.90
34873;DHT22;21084;51.098;14.506;2024-02-04T12:37:34;9.00;99.90
34873;DHT22;21084;51.098;14.506;2024-02-04T12:40:04;9.10;99.90
34873;DHT22;21084;51.098;14.506;2024-02-04T12:42:33;9.10;99.90
34873;DHT22;21084;51.098;14.506;2024-02-04T12:45:01;9.00;99.90
34873;DHT22;21084;51.098;14.506;2024-02-04T12:47:30;9.00;99.90
34873;DHT22;21084;51.098;14.506;2024-02-04T12:49:59;9.00;99.90
34873;DHT22;21084;51.098;14.506;2024-02-04T12:52:29;9.00;99.90
34873;DHT22;21084;51.098;14.506;2024-02-04T12:55:01;8.90;99.90
34873;DHT22;21084;51.098;14.506;2024-02-04T12:57:31;8.90;99.90
34873;DHT22;21084;51.098;14.506;2024-02-04T13:00:06;8.80;99.90
34873;DHT22;21084;51.098;14.506;2024-02-04T13:02:36;8.80;99.90
34873;DHT22;21084;51.098;14.506;2024-02-04T13:05:04;8.80;99.90
34873;DHT22;21084;51.098;14.506;2024-02-04T13:07:32;8.70;99.90
34873;DHT22;21084;51.098;14.506;2024-02-04T13:10:01;8.70;99.90
34873;DHT22;21084;51.098;14.506;2024-02-04T13:12:30;8.70;99.90
34873;DHT22;21084;51.098;14.506;2024-02-04T13:15:00;8.60;99.90
34873;DHT22;21084;51.098;14.506;2024-02-04T13:17:29;8.60;99.90
34873;DHT22;21084;51.098;14.506;2024-02-04T13:19:58;8.50;99.90
34873;DHT22;21084;51.098;14.506;2024-02-04T13:22:26;8.60;99.90
34873;DHT22;21084;51.098;14.506;2024-02-04T13:24:55;8.50;99.90
34873;DHT22;21084;51.098;14.506;2024-02-04T13:27:23;8.60;99.90
34873;DHT22;21084;51.098;14.506;2024-02-04T13:29:53;8.60;99.90
34873;DHT22;21084;51.098;14.506;2024-02-04T13:32:21;8.60;99.90
34873;DHT22;21084;51.098;14.506;2024-02-04T13:34:49;8.50;99.90
34873;DHT22;21084;51.098;14.506;2024-02-04T13:37:35;8.50;99.90
34873;DHT22;21084;51.098;14.506;2024-02-04T13:40:06;8.50;99.90
34873;DHT22;21084;51.098;14.506;2024-02-04T13:42:35;8.50;99.90
34873;DHT22;21084;51.098;14.506;2024-02-04T13:45:05;8.50;99.90
34873;DHT22;21084;51.098;14.506;2024-02-04T13:47:34;8.40;99.90
34873;DHT22;21084;51.098;14.506;2024-02-04T13:50:02;8.40;99.90
34873;DHT22;21084;51.098;14.506;2024-02-04T13:52:31;8.10;99.90
34873;DHT22;21084;51.098;14.506;2024-02-04T13:54:59;7.90;99.90
34873;DHT22;21084;51.098;14.506;2024-02-04T13:57:27;7.80;99.90
34873;DHT22;21084;51.098;14.506;2024-02-04T13:59:56;7.70;99.90
34873;DHT22;21084;51.098;14.506;2024-02-04T14:02:25;7.60;99.90
34873;DHT22;21084;51.098;14.506;2024-02-04T14:04:56;7.60;99.90
34873;DHT22;21084;51.098;14.506;2024-02-04T14:07:26;7.60;99.90
34873;DHT22;21084;51.098;14.506;2024-02-04T14:09:55;7.60;99.90
34873;DHT22;21084;51.098;14.506;2024-02-04T14:12:23;7.60;99.90
34873;DHT22;21084;51.098;14.506;2024-02-04T14:14:51;7.60;99.90
34873;DHT22;21084;51.098;14.506;2024-02-04T14:17:20;7.70;99.90
34873;DHT22;21084;51.098;14.506;2024-02-04T14:19:49;7.70;99.90
34873;DHT22;21084;51.098;14.506;2024-02-04T14:22:19;7.70;99.90
34873;DHT22;21084;51.098;14.506;2024-02-04T14:24:49;7.80;99.90
34873;DHT22;21084;51.098;14.506;2024-02-04T14:27:19;7.80;99.90
34873;DHT22;21084;51.098;14.506;2024-02-04T14:29:47;7.90;99.90
34873;DHT22;21084;51.098;14.506;2024-02-04T14:32:15;7.80;99.90
34873;DHT22;21084;51.098;14.506;2024-02-04T14:34:43;7.90;99.90
34873;DHT22;21084;51.098;14.506;2024-02-04T14:37:13;7.90;99.90
34873;DHT22;21084;51.098;14.506;2024-02-04T14:39:42;7.80;99.90
34873;DHT22;21084;51.098;14.506;2024-02-04T14:42:10;7.90;99.90
34873;DHT22;21084;51.098;14.506;2024-02-04T14:44:38;7.90;99.90
34873;DHT22;21084;51.098;14.506;2024-02-04T14:47:06;7.90;99.90
34873;DHT22;21084;51.098;14.506;2024-02-04T14:49:35;7.90;99.90
34873;DHT22;21084;51.098;14.506;2024-02-04T14:52:03;7.90;99.90
34873;DHT22;21084;51.098;14.506;2024-02-04T14:54:33;8.00;99.90
34873;DHT22;21084;51.098;14.506;2024-02-04T14:57:02;8.00;99.90
34873;DHT22;21084;51.098;14.506;2024-02-04T14:59:30;8.00;99.90
34873;DHT22;21084;51.098;14.506;2024-02-04T15:01:59;8.10;99.90
34873;DHT22;21084;51.098;14.506;2024-02-04T15:04:28;8.10;99.90
34873;DHT22;21084;51.098;14.506;2024-02-04T15:06:59;8.10;99.90
34873;DHT22;21084;51.098;14.506;2024-02-04T15:09:31;8.10;99.90
34873;DHT22;21084;51.098;14.506;2024-02-04T15:12:01;8.10;99.90
34873;DHT22;21084;51.098;14.506;2024-02-04T15:14:30;8.20;99.90
34873;DHT22;21084;51.098;14.506;2024-02-04T15:16:58;8.10;99.90
34873;DHT22;21084;51.098;14.506;2024-02-04T15:19:28;8.00;99.90
34873;DHT22;21084;51.098;14.506;2024-02-04T15:21:57;8.00;99.90
34873;DHT22;21084;51.098;14.506;2024-02-04T15:24:26;8.00;99.90
34873;DHT22;21084;51.098;14.506;2024-02-04T15:26:55;8.00;99.90
34873;DHT22;21084;51.098;14.506;2024-02-04T15:29:29;8.10;99.90
34873;DHT22;21084;51.098;14.506;2024-02-04T15:31:59;8.10;99.90
34873;DHT22;21084;51.098;14.506;2024-02-04T15:34:27;8.10;99.90
34873;DHT22;21084;51.098;14.506;2024-02-04T15:36:59;8.10;99.90
34873;DHT22;21084;51.098;14.506;2024-02-04T15:39:28;8.10;99.90
34873;DHT22;21084;51.098;14.506;2024-02-04T15:41:56;8.20;99.90